sensor_id;sensor_type;location;lat;lon;timestamp;P1;durP1;ratioP1;P2;durP2;ratioP2
69765;SDS011;57039;48.014;21.384;2023-08-06T00:00:27;3.28;;;1.75;;
69765;SDS011;57039;48.014;21.384;2023-08-06T00:01:30;4.40;;;2.00;;
69765;SDS011;57039;48.014;21.384;2023-08-06T00:02:33;2.75;;;1.05;;
69765;SDS011;57039;48.014;21.384;2023-08-06T00:03:36;4.35;;;2.33;;
69765;SDS011;57039;48.014;21.384;2023-08-06T00:04:39;4.30;;;1.90;;
69765;SDS011;57039;48.014;21.384;2023-08-06T00:05:42;3.53;;;1.67;;
69765;SDS011;57039;48.014;21.384;2023-08-06T00:06:45;5.93;;;2.20;;
69765;SDS011;57039;48.014;21.384;2023-08-06T00:07:48;3.43;;;1.70;;
69765;SDS011;57039;48.014;21.384;2023-08-06T00:08:51;4.62;;;1.75;;
69765;SDS011;57039;48.014;21.384;2023-08-06T00:09:53;6.25;;;2.05;;
69765;SDS011;57039;48.014;21.384;2023-08-06T00:10:56;4.45;;;2.22;;
69765;SDS011;57039;48.014;21.384;2023-08-06T00:11:59;5.68;;;2.50;;
69765;SDS011;57039;48.014;21.384;2023-08-06T00:13:02;4.80;;;2.25;;
69765;SDS011;57039;48.014;21.384;2023-08-06T00:14:05;4.22;;;1.90;;
69765;SDS011;57039;48.014;21.384;2023-08-06T00:15:08;3.90;;;2.05;;
69765;SDS011;57039;48.014;21.384;2023-08-06T00:16:11;3.10;;;1.65;;
69765;SDS011;57039;48.014;21.384;2023-08-06T00:17:15;3.75;;;1.50;;
69765;SDS011;57039;48.014;21.384;2023-08-06T00:18:18;4.57;;;1.83;;
69765;SDS011;57039;48.014;21.384;2023-08-06T00:19:21;5.72;;;1.85;;
69765;SDS011;57039;48.014;21.384;2023-08-06T00:20:24;4.60;;;1.73;;
69765;SDS011;57039;48.014;21.384;2023-08-06T00:21:27;4.07;;;2.47;;
69765;SDS011;57039;48.014;21.384;2023-08-06T00:22:31;3.35;;;1.25;;
69765;SDS011;57039;48.014;21.384;2023-08-06T00:23:37;3.62;;;1.52;;
69765;SDS011;57039;48.014;21.384;2023-08-06T00:24:39;4.30;;;1.83;;
69765;SDS011;57039;48.014;21.384;2023-08-06T00:25:42;5.55;;;1.62;;
69765;SDS011;57039;48.014;21.384;2023-08-06T00:26:45;3.83;;;1.73;;
69765;SDS011;57039;48.014;21.384;2023-08-06T00:27:48;3.80;;;1.52;;
69765;SDS011;57039;48.014;21.384;2023-08-06T00:28:50;5.30;;;2.10;;
69765;SDS011;57039;48.014;21.384;2023-08-06T00:29:53;3.50;;;1.37;;
69765;SDS011;57039;48.014;21.384;2023-08-06T00:30:56;4.30;;;2.15;;
69765;SDS011;57039;48.014;21.384;2023-08-06T00:31:59;2.72;;;1.40;;
69765;SDS011;57039;48.014;21.384;2023-08-06T00:33:02;3.92;;;2.05;;
69765;SDS011;57039;48.014;21.384;2023-08-06T00:34:06;2.90;;;1.52;;
69765;SDS011;57039;48.014;21.384;2023-08-06T00:35:10;3.40;;;1.25;;
69765;SDS011;57039;48.014;21.384;2023-08-06T00:36:13;3.42;;;1.42;;
69765;SDS011;57039;48.014;21.384;2023-08-06T00:37:16;3.25;;;1.40;;
69765;SDS011;57039;48.014;21.384;2023-08-06T00:38:19;4.05;;;2.03;;
69765;SDS011;57039;48.014;21.384;2023-08-06T00:39:22;3.13;;;1.37;;
69765;SDS011;57039;48.014;21.384;2023-08-06T00:40:25;1.50;;;0.60;;
69765;SDS011;57039;48.014;21.384;2023-08-06T00:41:30;3.95;;;1.50;;
69765;SDS011;57039;48.014;21.384;2023-08-06T00:42:33;3.97;;;2.70;;
69765;SDS011;57039;48.014;21.384;2023-08-06T00:43:37;3.08;;;0.80;;
69765;SDS011;57039;48.014;21.384;2023-08-06T00:44:40;6.55;;;1.92;;
69765;SDS011;57039;48.014;21.384;2023-08-06T00:45:42;3.45;;;1.73;;
69765;SDS011;57039;48.014;21.384;2023-08-06T00:46:45;2.65;;;1.27;;
69765;SDS011;57039;48.014;21.384;2023-08-06T00:47:49;3.58;;;1.73;;
69765;SDS011;57039;48.014;21.384;2023-08-06T00:48:52;4.37;;;1.87;;
69765;SDS011;57039;48.014;21.384;2023-08-06T00:49:55;2.83;;;1.57;;
69765;SDS011;57039;48.014;21.384;2023-08-06T00:50:57;3.53;;;1.92;;
69765;SDS011;57039;48.014;21.384;2023-08-06T00:52:00;5.12;;;1.70;;
69765;SDS011;57039;48.014;21.384;2023-08-06T00:53:04;4.10;;;1.23;;
69765;SDS011;57039;48.014;21.384;2023-08-06T00:54:07;2.78;;;1.20;;
69765;SDS011;57039;48.014;21.384;2023-08-06T00:55:11;3.33;;;1.58;;
69765;SDS011;57039;48.014;21.384;2023-08-06T00:56:14;3.15;;;1.17;;
69765;SDS011;57039;48.014;21.384;2023-08-06T00:57:16;2.70;;;1.35;;
69765;SDS011;57039;48.014;21.384;2023-08-06T00:58:20;2.85;;;1.23;;
69765;SDS011;57039;48.014;21.384;2023-08-06T00:59:24;2.75;;;1.20;;
69765;SDS011;57039;48.014;21.384;2023-08-06T01:00:27;2.30;;;1.00;;
69765;SDS011;57039;48.014;21.384;2023-08-06T01:01:30;2.12;;;0.82;;
69765;SDS011;57039;48.014;21.384;2023-08-06T01:02:32;5.47;;;2.17;;
69765;SDS011;57039;48.014;21.384;2023-08-06T01:03:35;3.35;;;1.23;;
69765;SDS011;57039;48.014;21.384;2023-08-06T01:04:38;4.72;;;2.10;;
69765;SDS011;57039;48.014;21.384;2023-08-06T01:05:41;2.45;;;1.23;;
69765;SDS011;57039;48.014;21.384;2023-08-06T01:06:47;2.40;;;1.05;;
69765;SDS011;57039;48.014;21.384;2023-08-06T01:09:54;2.85;;;1.35;;
69765;SDS011;57039;48.014;21.384;2023-08-06T01:14:57;2.10;;;1.02;;
69765;SDS011;57039;48.014;21.384;2023-08-06T01:16:05;3.25;;;1.10;;
69765;SDS011;57039;48.014;21.384;2023-08-06T01:17:09;5.05;;;2.37;;
69765;SDS011;57039;48.014;21.384;2023-08-06T01:18:12;4.57;;;1.27;;
69765;SDS011;57039;48.014;21.384;2023-08-06T01:19:16;2.47;;;1.02;;
69765;SDS011;57039;48.014;21.384;2023-08-06T01:20:20;3.25;;;1.60;;
69765;SDS011;57039;48.014;21.384;2023-08-06T01:21:23;1.80;;;0.73;;
69765;SDS011;57039;48.014;21.384;2023-08-06T01:22:25;2.67;;;1.20;;
69765;SDS011;57039;48.014;21.384;2023-08-06T01:23:28;3.60;;;1.80;;
69765;SDS011;57039;48.014;21.384;2023-08-06T01:24:32;3.22;;;1.33;;
69765;SDS011;57039;48.014;21.384;2023-08-06T01:27:28;2.70;;;1.17;;
69765;SDS011;57039;48.014;21.384;2023-08-06T01:28:46;2.95;;;1.35;;
69765;SDS011;57039;48.014;21.384;2023-08-06T01:29:57;3.15;;;1.50;;
69765;SDS011;57039;48.014;21.384;2023-08-06T01:31:06;4.20;;;1.77;;
69765;SDS011;57039;48.014;21.384;2023-08-06T01:32:13;4.53;;;1.85;;
69765;SDS011;57039;48.014;21.384;2023-08-06T01:33:19;3.33;;;1.20;;
69765;SDS011;57039;48.014;21.384;2023-08-06T01:34:25;4.15;;;1.58;;
69765;SDS011;57039;48.014;21.384;2023-08-06T01:35:30;3.63;;;1.90;;
69765;SDS011;57039;48.014;21.384;2023-08-06T01:36:34;2.30;;;0.98;;
69765;SDS011;57039;48.014;21.384;2023-08-06T01:37:37;2.85;;;1.27;;
69765;SDS011;57039;48.014;21.384;2023-08-06T01:38:41;4.50;;;1.20;;
69765;SDS011;57039;48.014;21.384;2023-08-06T01:39:44;2.28;;;1.12;;
69765;SDS011;57039;48.014;21.384;2023-08-06T01:40:47;2.40;;;1.08;;
69765;SDS011;57039;48.014;21.384;2023-08-06T01:41:49;4.68;;;1.87;;
69765;SDS011;57039;48.014;21.384;2023-08-06T01:42:52;2.90;;;1.27;;
69765;SDS011;57039;48.014;21.384;2023-08-06T01:43:55;2.42;;;1.05;;
69765;SDS011;57039;48.014;21.384;2023-08-06T01:44:58;3.62;;;1.65;;
69765;SDS011;57039;48.014;21.384;2023-08-06T01:46:01;3.30;;;1.53;;
69765;SDS011;57039;48.014;21.384;2023-08-06T01:47:04;2.50;;;1.05;;
69765;SDS011;57039;48.014;21.384;2023-08-06T01:48:07;2.83;;;1.55;;
69765;SDS011;57039;48.014;21.384;2023-08-06T01:49:10;2.97;;;1.45;;
69765;SDS011;57039;48.014;21.384;2023-08-06T01:50:13;2.37;;;1.23;;
69765;SDS011;57039;48.014;21.384;2023-08-06T01:51:16;2.15;;;1.02;;
69765;SDS011;57039;48.014;21.384;2023-08-06T01:52:18;3.35;;;1.33;;
69765;SDS011;57039;48.014;21.384;2023-08-06T01:53:21;2.62;;;1.35;;
69765;SDS011;57039;48.014;21.384;2023-08-06T01:54:24;2.83;;;1.45;;
69765;SDS011;57039;48.014;21.384;2023-08-06T01:55:28;2.67;;;1.12;;
69765;SDS011;57039;48.014;21.384;2023-08-06T01:56:33;2.87;;;1.43;;
69765;SDS011;57039;48.014;21.384;2023-08-06T01:57:35;3.28;;;1.35;;
69765;SDS011;57039;48.014;21.384;2023-08-06T01:58:38;3.45;;;1.42;;
69765;SDS011;57039;48.014;21.384;2023-08-06T01:59:41;2.83;;;1.52;;
69765;SDS011;57039;48.014;21.384;2023-08-06T02:00:44;3.33;;;1.67;;
69765;SDS011;57039;48.014;21.384;2023-08-06T02:01:47;2.55;;;1.10;;
69765;SDS011;57039;48.014;21.384;2023-08-06T02:02:50;2.05;;;0.80;;
69765;SDS011;57039;48.014;21.384;2023-08-06T02:03:52;3.53;;;1.65;;
69765;SDS011;57039;48.014;21.384;2023-08-06T02:04:55;4.03;;;1.40;;
69765;SDS011;57039;48.014;21.384;2023-08-06T02:06:00;2.45;;;1.12;;
69765;SDS011;57039;48.014;21.384;2023-08-06T02:07:03;4.03;;;1.83;;
69765;SDS011;57039;48.014;21.384;2023-08-06T02:08:06;5.07;;;1.48;;
69765;SDS011;57039;48.014;21.384;2023-08-06T02:09:09;2.47;;;1.37;;
69765;SDS011;57039;48.014;21.384;2023-08-06T02:10:12;3.62;;;1.83;;
69765;SDS011;57039;48.014;21.384;2023-08-06T02:11:15;2.62;;;1.37;;
69765;SDS011;57039;48.014;21.384;2023-08-06T02:12:18;2.35;;;1.23;;
69765;SDS011;57039;48.014;21.384;2023-08-06T02:13:21;4.20;;;1.52;;
69765;SDS011;57039;48.014;21.384;2023-08-06T02:14:23;2.70;;;1.17;;
69765;SDS011;57039;48.014;21.384;2023-08-06T02:15:26;1.98;;;1.00;;
69765;SDS011;57039;48.014;21.384;2023-08-06T02:16:29;3.65;;;2.20;;
69765;SDS011;57039;48.014;21.384;2023-08-06T02:17:32;4.90;;;1.80;;
69765;SDS011;57039;48.014;21.384;2023-08-06T02:18:35;3.22;;;1.42;;
69765;SDS011;57039;48.014;21.384;2023-08-06T02:19:37;1.83;;;0.80;;
69765;SDS011;57039;48.014;21.384;2023-08-06T02:20:41;2.65;;;1.20;;
69765;SDS011;57039;48.014;21.384;2023-08-06T02:21:44;2.60;;;1.20;;
69765;SDS011;57039;48.014;21.384;2023-08-06T02:22:46;2.85;;;1.25;;
69765;SDS011;57039;48.014;21.384;2023-08-06T02:23:49;2.67;;;1.15;;
69765;SDS011;57039;48.014;21.384;2023-08-06T02:24:52;2.35;;;1.12;;
69765;SDS011;57039;48.014;21.384;2023-08-06T02:26:02;2.15;;;0.98;;
69765;SDS011;57039;48.014;21.384;2023-08-06T02:27:05;3.33;;;1.55;;
69765;SDS011;57039;48.014;21.384;2023-08-06T02:28:08;2.53;;;1.17;;
69765;SDS011;57039;48.014;21.384;2023-08-06T02:29:12;3.28;;;1.42;;
69765;SDS011;57039;48.014;21.384;2023-08-06T02:30:17;13.38;;;2.10;;
69765;SDS011;57039;48.014;21.384;2023-08-06T02:31:21;2.22;;;1.12;;
69765;SDS011;57039;48.014;21.384;2023-08-06T02:32:24;3.92;;;1.23;;
69765;SDS011;57039;48.014;21.384;2023-08-06T02:33:27;2.55;;;1.17;;
69765;SDS011;57039;48.014;21.384;2023-08-06T02:34:30;3.92;;;1.40;;
69765;SDS011;57039;48.014;21.384;2023-08-06T02:35:33;2.78;;;1.00;;
69765;SDS011;57039;48.014;21.384;2023-08-06T02:36:36;2.75;;;1.27;;
69765;SDS011;57039;48.014;21.384;2023-08-06T02:37:38;2.10;;;0.90;;
69765;SDS011;57039;48.014;21.384;2023-08-06T02:38:41;2.60;;;1.30;;
69765;SDS011;57039;48.014;21.384;2023-08-06T02:39:44;2.12;;;0.95;;
69765;SDS011;57039;48.014;21.384;2023-08-06T02:40:46;3.65;;;1.42;;
69765;SDS011;57039;48.014;21.384;2023-08-06T02:41:51;3.20;;;1.25;;
69765;SDS011;57039;48.014;21.384;2023-08-06T02:42:54;2.05;;;0.90;;
69765;SDS011;57039;48.014;21.384;2023-08-06T02:43:57;3.53;;;1.45;;
69765;SDS011;57039;48.014;21.384;2023-08-06T02:44:59;2.55;;;1.10;;
69765;SDS011;57039;48.014;21.384;2023-08-06T02:46:03;2.20;;;1.15;;
69765;SDS011;57039;48.014;21.384;2023-08-06T02:47:06;2.10;;;0.80;;
69765;SDS011;57039;48.014;21.384;2023-08-06T02:48:09;3.72;;;0.93;;
69765;SDS011;57039;48.014;21.384;2023-08-06T02:49:12;10.73;;;1.57;;
69765;SDS011;57039;48.014;21.384;2023-08-06T02:50:15;3.25;;;1.23;;
69765;SDS011;57039;48.014;21.384;2023-08-06T02:51:18;2.80;;;1.50;;
69765;SDS011;57039;48.014;21.384;2023-08-06T02:52:21;2.58;;;1.20;;
69765;SDS011;57039;48.014;21.384;2023-08-06T02:53:24;3.67;;;1.20;;
69765;SDS011;57039;48.014;21.384;2023-08-06T02:54:27;3.00;;;1.23;;
69765;SDS011;57039;48.014;21.384;2023-08-06T02:55:29;2.50;;;1.27;;
69765;SDS011;57039;48.014;21.384;2023-08-06T02:56:32;3.03;;;1.27;;
69765;SDS011;57039;48.014;21.384;2023-08-06T02:57:36;3.50;;;1.52;;
69765;SDS011;57039;48.014;21.384;2023-08-06T02:58:38;3.10;;;1.05;;
69765;SDS011;57039;48.014;21.384;2023-08-06T02:59:41;2.97;;;1.57;;
69765;SDS011;57039;48.014;21.384;2023-08-06T03:00:44;1.83;;;0.80;;
69765;SDS011;57039;48.014;21.384;2023-08-06T03:01:48;2.53;;;0.82;;
69765;SDS011;57039;48.014;21.384;2023-08-06T03:02:51;2.05;;;0.82;;
69765;SDS011;57039;48.014;21.384;2023-08-06T03:03:54;2.87;;;1.15;;
69765;SDS011;57039;48.014;21.384;2023-08-06T03:04:58;2.60;;;1.15;;
69765;SDS011;57039;48.014;21.384;2023-08-06T03:06:01;2.37;;;0.93;;
69765;SDS011;57039;48.014;21.384;2023-08-06T03:07:04;2.17;;;0.73;;
69765;SDS011;57039;48.014;21.384;2023-08-06T03:08:08;2.28;;;1.45;;
69765;SDS011;57039;48.014;21.384;2023-08-06T03:09:11;2.10;;;0.88;;
69765;SDS011;57039;48.014;21.384;2023-08-06T03:10:14;2.40;;;1.20;;
69765;SDS011;57039;48.014;21.384;2023-08-06T03:11:17;2.92;;;1.25;;
69765;SDS011;57039;48.014;21.384;2023-08-06T03:12:20;2.75;;;0.95;;
69765;SDS011;57039;48.014;21.384;2023-08-06T03:13:23;2.28;;;1.02;;
69765;SDS011;57039;48.014;21.384;2023-08-06T03:14:26;2.47;;;0.90;;
69765;SDS011;57039;48.014;21.384;2023-08-06T03:15:29;1.95;;;0.98;;
69765;SDS011;57039;48.014;21.384;2023-08-06T03:16:31;2.42;;;1.12;;
69765;SDS011;57039;48.014;21.384;2023-08-06T03:17:34;3.70;;;1.02;;
69765;SDS011;57039;48.014;21.384;2023-08-06T03:18:38;1.40;;;0.50;;
69765;SDS011;57039;48.014;21.384;2023-08-06T03:19:42;2.33;;;1.00;;
69765;SDS011;57039;48.014;21.384;2023-08-06T03:20:44;1.50;;;0.60;;
69765;SDS011;57039;48.014;21.384;2023-08-06T03:21:47;2.00;;;0.90;;
69765;SDS011;57039;48.014;21.384;2023-08-06T03:22:50;2.00;;;0.90;;
69765;SDS011;57039;48.014;21.384;2023-08-06T03:23:53;3.20;;;1.10;;
69765;SDS011;57039;48.014;21.384;2023-08-06T03:24:57;2.05;;;0.70;;
69765;SDS011;57039;48.014;21.384;2023-08-06T03:26:03;1.70;;;0.65;;
69765;SDS011;57039;48.014;21.384;2023-08-06T03:27:06;1.62;;;0.62;;
69765;SDS011;57039;48.014;21.384;2023-08-06T03:28:10;2.30;;;1.02;;
69765;SDS011;57039;48.014;21.384;2023-08-06T03:29:13;2.00;;;0.73;;
69765;SDS011;57039;48.014;21.384;2023-08-06T03:30:16;1.58;;;0.70;;
69765;SDS011;57039;48.014;21.384;2023-08-06T03:31:19;1.87;;;0.90;;
69765;SDS011;57039;48.014;21.384;2023-08-06T03:32:22;2.85;;;1.00;;
69765;SDS011;57039;48.014;21.384;2023-08-06T03:33:25;3.08;;;1.95;;
69765;SDS011;57039;48.014;21.384;2023-08-06T03:34:28;2.37;;;0.90;;
69765;SDS011;57039;48.014;21.384;2023-08-06T03:35:31;1.92;;;0.90;;
69765;SDS011;57039;48.014;21.384;2023-08-06T03:36:34;2.22;;;0.65;;
69765;SDS011;57039;48.014;21.384;2023-08-06T03:37:37;2.33;;;0.82;;
69765;SDS011;57039;48.014;21.384;2023-08-06T03:38:40;2.40;;;0.88;;
69765;SDS011;57039;48.014;21.384;2023-08-06T03:39:44;2.53;;;1.08;;
69765;SDS011;57039;48.014;21.384;2023-08-06T03:40:46;2.12;;;1.00;;
69765;SDS011;57039;48.014;21.384;2023-08-06T03:41:49;1.97;;;0.90;;
69765;SDS011;57039;48.014;21.384;2023-08-06T03:42:52;1.98;;;0.70;;
69765;SDS011;57039;48.014;21.384;2023-08-06T03:43:55;1.83;;;0.85;;
69765;SDS011;57039;48.014;21.384;2023-08-06T03:44:58;2.87;;;1.83;;
69765;SDS011;57039;48.014;21.384;2023-08-06T03:46:01;2.72;;;0.80;;
69765;SDS011;57039;48.014;21.384;2023-08-06T03:47:04;1.20;;;0.50;;
69765;SDS011;57039;48.014;21.384;2023-08-06T03:48:07;2.05;;;0.98;;
69765;SDS011;57039;48.014;21.384;2023-08-06T03:49:10;1.83;;;0.75;;
69765;SDS011;57039;48.014;21.384;2023-08-06T03:50:13;1.62;;;0.60;;
69765;SDS011;57039;48.014;21.384;2023-08-06T03:51:16;1.60;;;0.68;;
69765;SDS011;57039;48.014;21.384;2023-08-06T03:52:18;2.00;;;0.90;;
69765;SDS011;57039;48.014;21.384;2023-08-06T03:53:21;1.65;;;0.65;;
69765;SDS011;57039;48.014;21.384;2023-08-06T03:54:24;1.52;;;0.55;;
69765;SDS011;57039;48.014;21.384;2023-08-06T03:55:27;1.75;;;0.60;;
69765;SDS011;57039;48.014;21.384;2023-08-06T03:56:30;1.87;;;0.77;;
69765;SDS011;57039;48.014;21.384;2023-08-06T03:57:34;1.67;;;0.70;;
69765;SDS011;57039;48.014;21.384;2023-08-06T03:58:36;1.70;;;0.60;;
69765;SDS011;57039;48.014;21.384;2023-08-06T03:59:39;1.73;;;0.70;;
69765;SDS011;57039;48.014;21.384;2023-08-06T04:00:43;1.65;;;0.70;;
69765;SDS011;57039;48.014;21.384;2023-08-06T04:01:46;1.62;;;0.52;;
69765;SDS011;57039;48.014;21.384;2023-08-06T04:02:48;1.70;;;0.63;;
69765;SDS011;57039;48.014;21.384;2023-08-06T04:03:52;1.98;;;0.60;;
69765;SDS011;57039;48.014;21.384;2023-08-06T04:04:55;1.73;;;0.73;;
69765;SDS011;57039;48.014;21.384;2023-08-06T04:05:58;1.58;;;0.77;;
69765;SDS011;57039;48.014;21.384;2023-08-06T04:07:01;1.27;;;0.55;;
69765;SDS011;57039;48.014;21.384;2023-08-06T04:08:03;1.25;;;0.50;;
69765;SDS011;57039;48.014;21.384;2023-08-06T04:09:06;1.98;;;0.85;;
69765;SDS011;57039;48.014;21.384;2023-08-06T04:10:09;1.42;;;0.60;;
69765;SDS011;57039;48.014;21.384;2023-08-06T04:11:12;2.35;;;0.85;;
69765;SDS011;57039;48.014;21.384;2023-08-06T04:12:16;1.60;;;0.68;;
69765;SDS011;57039;48.014;21.384;2023-08-06T04:13:20;1.33;;;0.43;;
69765;SDS011;57039;48.014;21.384;2023-08-06T04:14:22;1.33;;;0.50;;
69765;SDS011;57039;48.014;21.384;2023-08-06T04:15:25;2.00;;;0.90;;
69765;SDS011;57039;48.014;21.384;2023-08-06T04:16:28;1.60;;;0.68;;
69765;SDS011;57039;48.014;21.384;2023-08-06T04:17:31;1.00;;;0.40;;
69765;SDS011;57039;48.014;21.384;2023-08-06T04:18:34;1.40;;;0.62;;
69765;SDS011;57039;48.014;21.384;2023-08-06T04:19:37;1.85;;;0.73;;
69765;SDS011;57039;48.014;21.384;2023-08-06T04:20:43;1.45;;;0.65;;
69765;SDS011;57039;48.014;21.384;2023-08-06T04:21:47;1.80;;;0.82;;
69765;SDS011;57039;48.014;21.384;2023-08-06T04:22:50;1.80;;;0.70;;
69765;SDS011;57039;48.014;21.384;2023-08-06T04:23:53;1.30;;;0.50;;
69765;SDS011;57039;48.014;21.384;2023-08-06T04:24:56;1.62;;;0.65;;
69765;SDS011;57039;48.014;21.384;2023-08-06T04:25:58;3.00;;;0.90;;
69765;SDS011;57039;48.014;21.384;2023-08-06T04:27:02;1.70;;;0.77;;
69765;SDS011;57039;48.014;21.384;2023-08-06T04:28:05;1.48;;;0.65;;
69765;SDS011;57039;48.014;21.384;2023-08-06T04:29:09;1.83;;;0.80;;
69765;SDS011;57039;48.014;21.384;2023-08-06T04:30:12;1.50;;;0.55;;
69765;SDS011;57039;48.014;21.384;2023-08-06T04:31:15;1.30;;;0.50;;
69765;SDS011;57039;48.014;21.384;2023-08-06T04:32:19;1.95;;;1.12;;
69765;SDS011;57039;48.014;21.384;2023-08-06T04:33:22;1.23;;;0.50;;
69765;SDS011;57039;48.014;21.384;2023-08-06T04:34:25;1.33;;;0.57;;
69765;SDS011;57039;48.014;21.384;2023-08-06T04:35:28;1.25;;;0.52;;
69765;SDS011;57039;48.014;21.384;2023-08-06T04:36:31;1.80;;;0.75;;
69765;SDS011;57039;48.014;21.384;2023-08-06T04:37:34;1.37;;;0.50;;
69765;SDS011;57039;48.014;21.384;2023-08-06T04:38:37;1.60;;;0.60;;
69765;SDS011;57039;48.014;21.384;2023-08-06T04:39:40;2.20;;;0.88;;
69765;SDS011;57039;48.014;21.384;2023-08-06T04:40:43;1.95;;;0.75;;
69765;SDS011;57039;48.014;21.384;2023-08-06T04:41:46;1.10;;;0.40;;
69765;SDS011;57039;48.014;21.384;2023-08-06T04:42:49;2.37;;;1.45;;
69765;SDS011;57039;48.014;21.384;2023-08-06T04:43:52;2.37;;;0.82;;
69765;SDS011;57039;48.014;21.384;2023-08-06T04:44:55;1.40;;;0.50;;
69765;SDS011;57039;48.014;21.384;2023-08-06T04:45:58;1.55;;;0.60;;
69765;SDS011;57039;48.014;21.384;2023-08-06T04:47:00;1.52;;;0.70;;
69765;SDS011;57039;48.014;21.384;2023-08-06T04:48:03;2.30;;;0.82;;
69765;SDS011;57039;48.014;21.384;2023-08-06T04:49:06;1.58;;;0.73;;
69765;SDS011;57039;48.014;21.384;2023-08-06T04:50:09;1.05;;;0.40;;
69765;SDS011;57039;48.014;21.384;2023-08-06T04:51:12;1.27;;;0.50;;
69765;SDS011;57039;48.014;21.384;2023-08-06T04:52:14;1.52;;;0.60;;
69765;SDS011;57039;48.014;21.384;2023-08-06T04:53:17;1.17;;;0.43;;
69765;SDS011;57039;48.014;21.384;2023-08-06T04:54:20;1.37;;;0.57;;
69765;SDS011;57039;48.014;21.384;2023-08-06T04:55:23;1.53;;;0.60;;
69765;SDS011;57039;48.014;21.384;2023-08-06T04:56:26;1.27;;;0.50;;
69765;SDS011;57039;48.014;21.384;2023-08-06T04:57:29;1.00;;;0.40;;
69765;SDS011;57039;48.014;21.384;2023-08-06T04:58:31;1.20;;;0.50;;
69765;SDS011;57039;48.014;21.384;2023-08-06T04:59:35;1.70;;;0.70;;
69765;SDS011;57039;48.014;21.384;2023-08-06T05:00:38;1.87;;;0.50;;
69765;SDS011;57039;48.014;21.384;2023-08-06T05:01:40;1.85;;;0.93;;
69765;SDS011;57039;48.014;21.384;2023-08-06T05:02:43;1.70;;;0.68;;
69765;SDS011;57039;48.014;21.384;2023-08-06T05:03:47;1.25;;;0.43;;
69765;SDS011;57039;48.014;21.384;2023-08-06T05:04:50;1.73;;;0.73;;
69765;SDS011;57039;48.014;21.384;2023-08-06T05:05:53;1.63;;;0.73;;
69765;SDS011;57039;48.014;21.384;2023-08-06T05:06:56;3.33;;;0.73;;
69765;SDS011;57039;48.014;21.384;2023-08-06T05:07:58;1.20;;;0.43;;
69765;SDS011;57039;48.014;21.384;2023-08-06T05:09:01;1.05;;;0.40;;
69765;SDS011;57039;48.014;21.384;2023-08-06T05:10:04;2.97;;;0.75;;
69765;SDS011;57039;48.014;21.384;2023-08-06T05:11:07;1.10;;;0.40;;
69765;SDS011;57039;48.014;21.384;2023-08-06T05:12:11;1.62;;;0.75;;
69765;SDS011;57039;48.014;21.384;2023-08-06T05:13:14;1.37;;;0.60;;
69765;SDS011;57039;48.014;21.384;2023-08-06T05:14:17;1.75;;;0.60;;
69765;SDS011;57039;48.014;21.384;2023-08-06T05:15:20;1.67;;;0.60;;
69765;SDS011;57039;48.014;21.384;2023-08-06T05:16:23;1.40;;;0.50;;
69765;SDS011;57039;48.014;21.384;2023-08-06T05:17:26;1.00;;;0.40;;
69765;SDS011;57039;48.014;21.384;2023-08-06T05:18:29;1.52;;;0.55;;
69765;SDS011;57039;48.014;21.384;2023-08-06T05:19:32;1.40;;;0.50;;
69765;SDS011;57039;48.014;21.384;2023-08-06T05:20:36;1.30;;;0.57;;
69765;SDS011;57039;48.014;21.384;2023-08-06T05:21:40;1.20;;;0.50;;
69765;SDS011;57039;48.014;21.384;2023-08-06T05:22:43;1.17;;;0.50;;
69765;SDS011;57039;48.014;21.384;2023-08-06T05:23:46;2.75;;;0.60;;
69765;SDS011;57039;48.014;21.384;2023-08-06T05:24:49;1.20;;;0.43;;
69765;SDS011;57039;48.014;21.384;2023-08-06T05:25:52;1.00;;;0.40;;
69765;SDS011;57039;48.014;21.384;2023-08-06T05:26:55;1.47;;;0.57;;
69765;SDS011;57039;48.014;21.384;2023-08-06T05:27:57;0.93;;;0.32;;
69765;SDS011;57039;48.014;21.384;2023-08-06T05:29:00;2.47;;;1.00;;
69765;SDS011;57039;48.014;21.384;2023-08-06T05:30:03;1.33;;;0.57;;
69765;SDS011;57039;48.014;21.384;2023-08-06T05:31:08;1.00;;;0.40;;
69765;SDS011;57039;48.014;21.384;2023-08-06T05:32:10;1.00;;;0.40;;
69765;SDS011;57039;48.014;21.384;2023-08-06T05:33:13;1.20;;;0.40;;
69765;SDS011;57039;48.014;21.384;2023-08-06T05:34:16;1.50;;;0.62;;
69765;SDS011;57039;48.014;21.384;2023-08-06T05:35:19;1.40;;;0.50;;
69765;SDS011;57039;48.014;21.384;2023-08-06T05:36:22;1.40;;;0.65;;
69765;SDS011;57039;48.014;21.384;2023-08-06T05:37:24;1.10;;;0.50;;
69765;SDS011;57039;48.014;21.384;2023-08-06T05:38:29;1.20;;;0.50;;
69765;SDS011;57039;48.014;21.384;2023-08-06T05:39:32;1.23;;;0.50;;
69765;SDS011;57039;48.014;21.384;2023-08-06T05:40:34;1.30;;;0.50;;
69765;SDS011;57039;48.014;21.384;2023-08-06T05:41:37;1.98;;;0.70;;
69765;SDS011;57039;48.014;21.384;2023-08-06T05:42:40;1.10;;;0.40;;
69765;SDS011;57039;48.014;21.384;2023-08-06T05:43:43;0.90;;;0.30;;
69765;SDS011;57039;48.014;21.384;2023-08-06T05:44:46;1.08;;;0.40;;
69765;SDS011;57039;48.014;21.384;2023-08-06T05:45:49;1.62;;;0.80;;
69765;SDS011;57039;48.014;21.384;2023-08-06T05:46:53;1.12;;;0.40;;
69765;SDS011;57039;48.014;21.384;2023-08-06T05:47:55;1.40;;;0.60;;
69765;SDS011;57039;48.014;21.384;2023-08-06T05:49:00;5.12;;;0.70;;
69765;SDS011;57039;48.014;21.384;2023-08-06T05:50:03;1.35;;;0.55;;
69765;SDS011;57039;48.014;21.384;2023-08-06T05:51:06;1.92;;;0.70;;
69765;SDS011;57039;48.014;21.384;2023-08-06T05:52:10;0.90;;;0.30;;
69765;SDS011;57039;48.014;21.384;2023-08-06T05:53:13;1.23;;;0.50;;
69765;SDS011;57039;48.014;21.384;2023-08-06T05:54:15;1.25;;;0.50;;
69765;SDS011;57039;48.014;21.384;2023-08-06T05:55:19;1.42;;;0.55;;
69765;SDS011;57039;48.014;21.384;2023-08-06T05:56:22;1.12;;;0.50;;
69765;SDS011;57039;48.014;21.384;2023-08-06T05:57:25;1.55;;;0.50;;
69765;SDS011;57039;48.014;21.384;2023-08-06T05:58:28;0.97;;;0.37;;
69765;SDS011;57039;48.014;21.384;2023-08-06T05:59:32;1.30;;;0.60;;
69765;SDS011;57039;48.014;21.384;2023-08-06T06:00:35;1.30;;;0.43;;
69765;SDS011;57039;48.014;21.384;2023-08-06T06:01:38;1.20;;;0.50;;
69765;SDS011;57039;48.014;21.384;2023-08-06T06:02:41;1.45;;;0.60;;
69765;SDS011;57039;48.014;21.384;2023-08-06T06:03:43;1.62;;;0.77;;
69765;SDS011;57039;48.014;21.384;2023-08-06T06:04:46;1.30;;;0.50;;
69765;SDS011;57039;48.014;21.384;2023-08-06T06:05:49;1.42;;;0.70;;
69765;SDS011;57039;48.014;21.384;2023-08-06T06:06:52;1.20;;;0.40;;
69765;SDS011;57039;48.014;21.384;2023-08-06T06:07:54;1.10;;;0.40;;
69765;SDS011;57039;48.014;21.384;2023-08-06T06:08:57;1.20;;;0.40;;
69765;SDS011;57039;48.014;21.384;2023-08-06T06:10:00;1.17;;;0.40;;
69765;SDS011;57039;48.014;21.384;2023-08-06T06:11:03;1.00;;;0.40;;
69765;SDS011;57039;48.014;21.384;2023-08-06T06:12:06;1.80;;;0.77;;
69765;SDS011;57039;48.014;21.384;2023-08-06T06:13:09;1.30;;;0.40;;
69765;SDS011;57039;48.014;21.384;2023-08-06T06:14:11;1.67;;;0.60;;
69765;SDS011;57039;48.014;21.384;2023-08-06T06:15:14;1.20;;;0.50;;
69765;SDS011;57039;48.014;21.384;2023-08-06T06:16:17;1.70;;;1.05;;
69765;SDS011;57039;48.014;21.384;2023-08-06T06:17:20;1.52;;;0.65;;
69765;SDS011;57039;48.014;21.384;2023-08-06T06:18:23;1.30;;;0.57;;
69765;SDS011;57039;48.014;21.384;2023-08-06T06:19:26;1.70;;;0.70;;
69765;SDS011;57039;48.014;21.384;2023-08-06T06:20:31;1.10;;;0.40;;
69765;SDS011;57039;48.014;21.384;2023-08-06T06:21:35;1.30;;;0.62;;
69765;SDS011;57039;48.014;21.384;2023-08-06T06:22:38;1.17;;;0.50;;